createdAt,value
2023-02-12T00:04:58.237Z,72.27
2023-02-12T00:10:19.068Z,72.54
2023-02-12T00:15:41.602Z,72.88
2023-02-12T00:21:03.217Z,72.16
2023-02-12T00:26:24.874Z,72.89
2023-02-12T00:31:46.025Z,73.02
2023-02-12T00:37:07.079Z,72.11
2023-02-12T00:42:27.880Z,72.27
2023-02-12T00:47:49.973Z,72.59
2023-02-12T00:53:10.602Z,72.41
2023-02-12T00:58:31.778Z,72.34
2023-02-12T01:03:53.371Z,72.38
2023-02-12T01:09:15.366Z,72.82
2023-02-12T01:14:36.354Z,72.46
2023-02-12T01:19:59.039Z,72.86
2023-02-12T01:25:21.394Z,72.37
2023-02-12T01:30:42.458Z,72.66
2023-02-12T01:36:03.645Z,72.91
2023-02-12T01:41:27.453Z,72.35
2023-02-12T01:47:00.544Z,72.97
2023-02-12T01:52:27.728Z,72.35
2023-02-12T01:57:50.857Z,72.36
2023-02-12T02:03:12.152Z,72.15
2023-02-12T02:08:34.290Z,72.43
2023-02-12T02:14:14.892Z,72.97
2023-02-12T02:19:35.938Z,72.22
2023-02-12T02:24:59.928Z,72.35
2023-02-12T02:30:36.947Z,72.79
2023-02-12T02:36:05.090Z,72.45
2023-02-12T02:41:46.777Z,72.97
2023-02-12T02:47:11.519Z,72.73
2023-02-12T02:52:39.432Z,72.95
2023-02-12T02:58:06.236Z,73.22
2023-02-12T03:03:33.093Z,73.15
2023-02-12T03:09:05.529Z,72.71
2023-02-12T03:14:31.726Z,72.32
2023-02-12T03:20:00.714Z,72.55
2023-02-12T03:25:44.494Z,72.71
2023-02-12T03:31:05.265Z,72.39
2023-02-12T03:36:34.944Z,72.73
2023-02-12T03:42:20.263Z,72.09
2023-02-12T03:47:47.891Z,72.76
2023-02-12T03:53:08.760Z,72.66
2023-02-12T03:58:34.652Z,72.59
2023-02-12T04:03:55.790Z,72.96
2023-02-12T04:09:17.667Z,72.97
2023-02-12T04:14:54.756Z,72.09
2023-02-12T04:20:27.319Z,72.87
2023-02-12T04:26:08.508Z,72.57
2023-02-12T04:31:42.611Z,72.78
2023-02-12T04:37:14.438Z,72.12
2023-02-12T04:42:50.481Z,72.77
2023-02-12T04:48:12.835Z,72.81
2023-02-12T04:53:33.614Z,72.89
2023-02-12T04:58:57.789Z,72.46
2023-02-12T05:04:18.883Z,72.22
2023-02-12T05:09:39.679Z,72.17
2023-02-12T05:15:00.384Z,72.79
2023-02-12T05:20:21.264Z,72.43
2023-02-12T05:25:41.977Z,72.58
2023-02-12T05:31:05.760Z,72.46
2023-02-12T05:36:26.888Z,72.50
2023-02-12T05:41:47.560Z,72.26
2023-02-12T05:47:08.425Z,72.78
2023-02-12T05:52:29.041Z,72.18
2023-02-12T05:57:51.159Z,72.60
2023-02-12T06:03:12.099Z,72.25
2023-02-12T06:08:33.317Z,72.39
2023-02-12T06:13:54.540Z,72.50
2023-02-12T06:19:15.930Z,72.32
2023-02-12T06:24:37.248Z,71.93
2023-02-12T06:29:58.214Z,72.44
2023-02-12T06:35:18.816Z,71.82
2023-02-12T06:40:39.385Z,73.22
2023-02-12T06:46:04.221Z,72.23
2023-02-12T06:51:26.168Z,72.31
2023-02-12T06:56:46.934Z,72.21
2023-02-12T07:02:10.633Z,72.37
2023-02-12T07:07:31.730Z,72.64
2023-02-12T07:12:52.411Z,72.89
2023-02-12T07:18:13.136Z,72.43
2023-02-12T07:23:34.330Z,72.86
2023-02-12T07:28:56.819Z,72.58
2023-02-12T07:34:17.757Z,72.35
2023-02-12T07:39:38.481Z,72.67
2023-02-12T07:44:59.058Z,71.81
2023-02-12T07:50:19.996Z,72.40
2023-02-12T07:55:40.732Z,72.95
2023-02-12T08:01:10.668Z,73.53
2023-02-12T08:06:33.069Z,73.08
2023-02-12T08:11:54.426Z,73.76
2023-02-12T08:17:15.633Z,73.52
2023-02-12T08:22:37.229Z,72.88
2023-02-12T08:27:57.829Z,72.72
2023-02-12T08:33:18.528Z,72.82
2023-02-12T08:38:39.964Z,73.28
2023-02-12T08:44:03.317Z,73.09
2023-02-12T08:49:27.188Z,73.22
2023-02-12T08:54:48.077Z,73.60
2023-02-12T09:00:09.500Z,72.90
2023-02-12T09:05:30.961Z,72.86
2023-02-12T09:10:51.751Z,72.79
2023-02-12T09:16:13.729Z,73.46
2023-02-12T09:21:34.377Z,73.21
2023-02-12T09:26:55.941Z,72.99
2023-02-12T09:32:16.680Z,73.11
2023-02-12T09:37:37.561Z,73.10
2023-02-12T09:43:07.141Z,73.45
2023-02-12T09:48:49.171Z,73.29
2023-02-12T09:54:15.218Z,73.37
2023-02-12T09:59:41.589Z,73.70
2023-02-12T10:05:02.858Z,73.56
2023-02-12T10:10:51.483Z,73.88
2023-02-12T10:16:33.595Z,73.86
2023-02-12T10:22:03.824Z,73.80
2023-02-12T10:27:53.577Z,73.41
2023-02-12T10:33:21.208Z,73.41
2023-02-12T10:38:47.255Z,73.12
2023-02-12T10:44:10.678Z,73.67
2023-02-12T10:49:33.114Z,73.45
2023-02-12T10:54:53.992Z,73.24
2023-02-12T11:00:33.445Z,73.63
2023-02-12T11:05:54.894Z,73.44
2023-02-12T11:11:28.308Z,73.61
2023-02-12T11:16:57.923Z,73.74
2023-02-12T11:22:19.493Z,73.96
2023-02-12T11:27:40.439Z,73.64
2023-02-12T11:33:37.650Z,74.32
2023-02-12T11:38:59.827Z,74.04
2023-02-12T11:44:41.527Z,73.49
2023-02-12T11:50:09.175Z,73.98
2023-02-12T11:55:34.051Z,73.16
2023-02-12T12:00:59.025Z,73.62
2023-02-12T12:06:19.875Z,73.28
2023-02-12T12:11:54.947Z,73.39
2023-02-12T12:17:36.171Z,72.77
2023-02-12T12:23:03.828Z,73.13
2023-02-12T12:28:37.368Z,72.69
2023-02-12T12:34:17.850Z,72.67
2023-02-12T12:39:47.810Z,74.19
2023-02-12T12:45:46.093Z,72.39
2023-02-12T12:51:34.691Z,72.25
2023-02-12T12:57:17.488Z,72.04
2023-02-12T13:02:53.259Z,72.52
2023-02-12T13:08:28.558Z,72.14
2023-02-12T13:13:53.868Z,71.94
2023-02-12T13:19:56.731Z,71.94
2023-02-12T13:25:18.151Z,72.28
2023-02-12T13:30:50.158Z,71.89
2023-02-12T13:36:14.639Z,72.03
2023-02-12T13:41:36.853Z,71.85
2023-02-12T13:47:21.397Z,72.02
2023-02-12T13:53:01.368Z,72.03
2023-02-12T13:58:40.184Z,74.80
2023-02-12T14:04:43.594Z,71.83
2023-02-12T14:10:06.326Z,71.38
2023-02-12T14:15:29.541Z,71.21
2023-02-12T14:21:12.438Z,71.60
2023-02-12T14:26:38.799Z,71.28
2023-02-12T14:32:02.263Z,71.36
2023-02-12T14:37:37.624Z,71.50
2023-02-12T14:42:59.582Z,71.77
2023-02-12T14:48:41.393Z,72.21
2023-02-12T14:54:06.757Z,73.02
2023-02-12T14:59:31.611Z,71.91
2023-02-12T15:04:54.878Z,71.34
2023-02-12T15:10:19.918Z,70.87
2023-02-12T15:15:50.992Z,70.76
2023-02-12T15:21:25.631Z,70.96
2023-02-12T15:26:55.967Z,70.97
2023-02-12T15:32:25.720Z,71.30
2023-02-12T15:37:47.031Z,71.25
2023-02-12T15:43:18.033Z,71.23
2023-02-12T15:48:39.667Z,71.28
2023-02-12T15:54:04.827Z,71.08
2023-02-12T15:59:29.241Z,71.55
2023-02-12T16:04:51.116Z,71.74
2023-02-12T16:10:22.836Z,71.25
2023-02-12T16:15:43.925Z,71.54
2023-02-12T16:21:35.785Z,71.55
2023-02-12T16:26:59.365Z,70.94
2023-02-12T16:32:32.684Z,70.93
2023-02-12T16:38:01.369Z,71.29
2023-02-12T16:43:25.370Z,71.25
2023-02-12T16:48:51.858Z,70.55
2023-02-12T16:54:34.032Z,70.76
2023-02-12T16:59:54.978Z,70.89
2023-02-12T17:05:18.384Z,71.10
2023-02-12T17:10:39.340Z,70.25
2023-02-12T17:16:03.970Z,70.90
2023-02-12T17:21:40.754Z,70.67
2023-02-12T17:27:02.831Z,70.73
2023-02-12T17:32:25.482Z,70.99
2023-02-12T17:37:48.134Z,70.67
2023-02-12T17:43:08.887Z,70.79
2023-02-12T17:48:29.803Z,70.11
2023-02-12T17:53:50.687Z,70.44
2023-02-12T17:59:12.015Z,73.31
2023-02-12T18:04:35.869Z,71.39
2023-02-12T18:09:57.005Z,70.93
2023-02-12T18:15:18.091Z,72.56
2023-02-12T18:20:42.858Z,70.98
2023-02-12T18:26:16.104Z,70.85
2023-02-12T18:31:37.041Z,70.31
2023-02-12T18:36:57.803Z,70.95
2023-02-12T18:42:18.746Z,70.22
2023-02-12T18:47:39.622Z,70.59
2023-02-12T18:53:00.419Z,70.94
2023-02-12T18:58:21.207Z,70.62
2023-02-12T19:03:42.384Z,70.85
2023-02-12T19:09:03.922Z,70.41
2023-02-12T19:14:25.631Z,70.56
2023-02-12T19:19:50.125Z,71.08
2023-02-12T19:25:11.329Z,70.94
2023-02-12T19:30:32.393Z,70.89
2023-02-12T19:35:53.713Z,71.09
2023-02-12T19:41:17.738Z,70.79
2023-02-12T19:46:40.557Z,71.07
2023-02-12T19:52:01.600Z,71.78
2023-02-12T19:57:23.307Z,71.36
2023-02-12T20:02:44.351Z,71.50
2023-02-12T20:08:05.067Z,71.26
2023-02-12T20:13:26.087Z,71.35
2023-02-12T20:18:49.466Z,71.46
2023-02-12T20:24:10.449Z,71.04
2023-02-12T20:29:31.450Z,71.69
2023-02-12T20:34:53.666Z,71.19
2023-02-12T20:40:14.605Z,71.70
2023-02-12T20:45:35.504Z,71.47
2023-02-12T20:50:57.373Z,71.99
2023-02-12T20:56:24.687Z,71.80
2023-02-12T21:01:45.930Z,71.86
2023-02-12T21:07:07.029Z,71.25
2023-02-12T21:12:27.837Z,71.70
2023-02-12T21:17:48.763Z,71.91
2023-02-12T21:23:10.301Z,71.48
2023-02-12T21:28:32.521Z,72.03
2023-02-12T21:33:55.231Z,72.11
2023-02-12T21:39:25.001Z,71.53
2023-02-12T21:44:45.904Z,72.12
2023-02-12T21:50:07.041Z,72.14
2023-02-12T21:55:27.866Z,71.81
2023-02-12T22:00:50.499Z,71.92
2023-02-12T22:06:12.496Z,72.57
2023-02-12T22:11:35.041Z,71.65
2023-02-12T22:16:55.923Z,71.68
2023-02-12T22:22:16.677Z,71.63
2023-02-12T22:27:38.703Z,71.89
2023-02-12T22:32:59.546Z,71.41
2023-02-12T22:38:20.224Z,71.82
2023-02-12T22:43:42.111Z,71.95
2023-02-12T22:49:03.007Z,72.44
2023-02-12T22:54:23.731Z,71.76
2023-02-12T22:59:44.338Z,72.48
2023-02-12T23:05:05.363Z,72.38
2023-02-12T23:10:26.472Z,72.36
2023-02-12T23:15:47.550Z,72.36
2023-02-12T23:21:08.846Z,71.77
2023-02-12T23:26:30.438Z,72.34
2023-02-12T23:31:51.284Z,72.42
2023-02-12T23:37:12.252Z,72.61
2023-02-12T23:42:33.355Z,72.29
2023-02-12T23:47:54.317Z,72.01
2023-02-12T23:53:15.360Z,72.67
2023-02-12T23:58:35.952Z,72.43
